Keswick, Canada
Current Conditions -  °F | °C
As of 11:00 AM on Monday 26 Jan 2015 (Local Time) from CYBN Reporting Station
Clear Clear  
Wind Chill:   Ceiling: Unl
Heat Index:   Visibility: 9mi
Dew Point: -6°   Wind: 0mph
Humidity: 56%   Direction: NA
Pressure: 30.04"   Gusts: NA
Location:  44.24°N, 79.47°W
Report Text: CYBN 261600Z AUTO 00000KT 9SM CLR M14/M21 A3004 RMK SLP193
Loading
Personal Weather Stations






























Interactive Weather Map New forecast layout! Learn more

10-Day Weather Forecast

Advertisements
Track Severe Weather on mobile